createdAt,value
2023-03-10T00:01:35.093Z,75.54
2023-03-10T00:04:39.167Z,76.08
2023-03-10T00:07:43.320Z,75.18
2023-03-10T00:10:48.110Z,76.69
2023-03-10T00:13:52.925Z,76.82
2023-03-10T00:16:56.773Z,75.96
2023-03-10T00:20:00.840Z,76.11
2023-03-10T00:23:05.750Z,74.82
2023-03-10T00:26:13.432Z,73.83
2023-03-10T00:29:18.605Z,75.03
2023-03-10T00:32:22.751Z,74.15
2023-03-10T00:35:26.826Z,74.23
2023-03-10T00:38:30.675Z,73.68
2023-03-10T00:41:39.835Z,72.96
2023-03-10T00:44:43.953Z,73.49
2023-03-10T00:47:48.002Z,73.13
2023-03-10T00:50:52.205Z,72.48
2023-03-10T00:53:56.795Z,72.52
2023-03-10T00:57:00.805Z,72.12
2023-03-10T01:00:07.760Z,72.45
2023-03-10T01:03:11.586Z,73.91
2023-03-10T01:06:16.171Z,74.47
2023-03-10T01:09:20.044Z,73.26
2023-03-10T01:12:23.932Z,71.71
2023-03-10T01:15:28.113Z,70.36
2023-03-10T01:18:32.653Z,72.49
2023-03-10T01:21:38.956Z,71.70
2023-03-10T01:24:42.928Z,70.09
2023-03-10T01:27:47.067Z,69.35
2023-03-10T01:30:51.725Z,68.16
2023-03-10T01:33:56.417Z,67.18
2023-03-10T01:37:00.869Z,66.80
2023-03-10T01:40:06.272Z,66.50
2023-03-10T01:43:34.081Z,65.43
2023-03-10T01:46:51.378Z,66.03
2023-03-10T01:50:08.076Z,65.20
2023-03-10T01:53:14.068Z,68.02
2023-03-10T01:56:18.792Z,66.04
2023-03-10T01:59:23.512Z,67.73
2023-03-10T02:02:28.475Z,67.89
2023-03-10T02:05:33.353Z,66.96
2023-03-10T02:08:47.478Z,69.20
2023-03-10T02:11:52.094Z,68.79
2023-03-10T02:14:57.978Z,66.24
2023-03-10T02:18:04.496Z,63.99
2023-03-10T02:21:27.881Z,63.50
2023-03-10T02:24:46.786Z,62.85
2023-03-10T02:27:51.781Z,62.80
2023-03-10T02:30:58.973Z,62.32
2023-03-10T02:34:04.881Z,62.65
2023-03-10T02:37:22.855Z,62.52
2023-03-10T02:40:41.232Z,61.83
2023-03-10T02:43:49.945Z,61.56
2023-03-10T02:47:01.532Z,61.54
2023-03-10T02:50:09.229Z,61.21
2023-03-10T02:53:21.709Z,61.62
2023-03-10T02:56:27.622Z,61.26
2023-03-10T02:59:34.175Z,60.88
2023-03-10T03:02:38.844Z,61.89
2023-03-10T03:05:43.947Z,61.09
2023-03-10T03:08:48.034Z,61.40
2023-03-10T03:11:56.547Z,60.33
2023-03-10T03:15:00.584Z,60.30
2023-03-10T03:18:06.932Z,59.99
2023-03-10T03:21:16.572Z,59.06
2023-03-10T03:24:21.975Z,58.93
2023-03-10T03:27:25.920Z,57.95
2023-03-10T03:30:31.414Z,57.40
2023-03-10T03:33:35.740Z,57.05
2023-03-10T03:36:39.863Z,56.24
2023-03-10T03:39:45.292Z,54.78
2023-03-10T03:42:51.661Z,55.81
2023-03-10T03:45:57.846Z,55.64
2023-03-10T03:49:02.603Z,56.42
2023-03-10T03:52:08.223Z,53.61
2023-03-10T03:55:14.070Z,57.18
2023-03-10T03:58:19.578Z,56.55
2023-03-10T04:01:24.697Z,56.52
2023-03-10T04:04:32.444Z,56.79
2023-03-10T04:07:39.240Z,56.15
2023-03-10T04:10:52.169Z,55.09
2023-03-10T04:13:58.725Z,55.15
2023-03-10T04:17:05.551Z,56.27
2023-03-10T04:20:12.458Z,56.81
2023-03-10T04:23:18.758Z,56.57
2023-03-10T04:26:23.412Z,57.37
2023-03-10T04:29:28.295Z,56.71
2023-03-10T04:32:34.345Z,56.48
2023-03-10T04:36:31.872Z,57.06
2023-03-10T04:39:40.730Z,58.37
2023-03-10T04:42:45.186Z,56.05
2023-03-10T04:45:51.839Z,55.76
2023-03-10T04:48:59.632Z,56.04
2023-03-10T04:52:04.648Z,56.89
2023-03-10T04:55:09.570Z,55.29
2023-03-10T04:58:15.824Z,55.62
2023-03-10T05:01:21.015Z,55.22
2023-03-10T05:04:29.954Z,54.71
2023-03-10T05:07:34.156Z,54.25
2023-03-10T05:10:45.151Z,54.35
2023-03-10T05:13:50.021Z,55.67
2023-03-10T05:16:54.766Z,55.46
2023-03-10T05:19:59.813Z,54.74
2023-03-10T05:23:04.876Z,54.41
2023-03-10T05:26:11.841Z,54.11
2023-03-10T05:29:15.897Z,55.47
2023-03-10T05:32:25.290Z,54.62
2023-03-10T05:35:29.611Z,54.97
2023-03-10T05:38:35.752Z,54.96
2023-03-10T05:41:42.234Z,55.15
2023-03-10T05:44:47.347Z,55.60
2023-03-10T05:47:51.863Z,55.28
2023-03-10T05:51:09.395Z,55.26
2023-03-10T05:54:14.518Z,55.05
2023-03-10T05:57:19.258Z,54.73
2023-03-10T06:00:24.335Z,54.94
2023-03-10T06:03:37.433Z,54.67
2023-03-10T06:06:41.630Z,55.07
2023-03-10T06:09:46.709Z,55.73
2023-03-10T06:12:51.384Z,55.89
2023-03-10T06:15:58.376Z,55.57
2023-03-10T06:19:02.782Z,55.78
2023-03-10T06:22:07.074Z,55.30
2023-03-10T06:25:11.966Z,56.07
2023-03-10T06:28:17.489Z,58.80
2023-03-10T06:31:25.514Z,59.05
2023-03-10T06:34:30.116Z,58.70
2023-03-10T06:37:34.691Z,58.25
2023-03-10T06:40:39.419Z,58.98
2023-03-10T06:43:44.342Z,59.46
2023-03-10T06:46:48.785Z,59.77
2023-03-10T06:49:55.575Z,60.33
2023-03-10T06:52:59.899Z,60.29
2023-03-10T06:56:07.473Z,60.46
2023-03-10T06:59:11.886Z,61.03
2023-03-10T07:02:16.397Z,60.99
2023-03-10T07:05:20.475Z,60.88
2023-03-10T07:08:24.841Z,60.74
2023-03-10T07:11:31.062Z,61.41
2023-03-10T07:14:37.990Z,61.09
2023-03-10T07:17:42.367Z,61.91
2023-03-10T07:20:46.928Z,61.78
2023-03-10T07:23:51.271Z,61.23
2023-03-10T07:26:55.920Z,62.29
2023-03-10T07:29:59.801Z,62.21
2023-03-10T07:33:03.991Z,61.79
2023-03-10T07:36:10.669Z,61.74
2023-03-10T07:39:15.400Z,62.31
2023-03-10T07:42:20.024Z,62.36
2023-03-10T07:45:25.348Z,62.36
2023-03-10T07:48:29.403Z,62.07
2023-03-10T07:51:34.310Z,62.38
2023-03-10T07:54:39.013Z,62.04
2023-03-10T07:57:43.860Z,62.66
2023-03-10T08:00:54.784Z,62.90
2023-03-10T08:03:59.277Z,62.74
2023-03-10T08:07:03.823Z,63.56
2023-03-10T08:10:08.952Z,63.31
2023-03-10T08:13:13.577Z,62.82
2023-03-10T08:16:21.045Z,63.29
2023-03-10T08:19:26.829Z,62.67
2023-03-10T08:22:31.636Z,63.09
2023-03-10T08:25:36.647Z,62.49
2023-03-10T08:28:41.168Z,62.76
2023-03-10T08:31:45.816Z,62.28
2023-03-10T08:34:50.154Z,63.29
2023-03-10T08:37:55.405Z,63.59
2023-03-10T08:41:10.048Z,63.30
2023-03-10T08:44:16.408Z,63.16
2023-03-10T08:47:21.629Z,63.08
2023-03-10T08:50:26.085Z,63.78
2023-03-10T08:53:30.584Z,63.80
2023-03-10T08:56:35.950Z,63.85
2023-03-10T08:59:40.390Z,64.73
2023-03-10T09:02:44.738Z,65.33
2023-03-10T09:05:51.098Z,64.76
2023-03-10T09:08:55.836Z,65.09
2023-03-10T09:12:00.978Z,65.00
2023-03-10T09:15:05.743Z,65.19
2023-03-10T09:18:11.626Z,65.30
2023-03-10T09:21:19.386Z,65.45
2023-03-10T09:24:23.674Z,65.55
2023-03-10T09:27:28.163Z,65.47
2023-03-10T09:30:32.216Z,65.84
2023-03-10T09:33:36.780Z,65.19
2023-03-10T09:36:41.065Z,64.60
2023-03-10T09:39:44.904Z,64.36
2023-03-10T09:42:52.685Z,64.58
2023-03-10T09:46:14.012Z,64.13
2023-03-10T09:49:34.687Z,64.08
2023-03-10T09:52:49.046Z,63.78
2023-03-10T09:55:54.116Z,63.50
2023-03-10T09:59:12.068Z,64.01
2023-03-10T10:02:27.187Z,63.77
2023-03-10T10:05:34.451Z,64.22
2023-03-10T10:09:04.676Z,64.24
2023-03-10T10:12:14.669Z,65.07
2023-03-10T10:15:23.188Z,65.80
2023-03-10T10:18:44.341Z,65.55
2023-03-10T10:22:02.545Z,66.04
2023-03-10T10:25:09.943Z,66.25
2023-03-10T10:28:49.168Z,66.94
2023-03-10T10:32:14.232Z,66.72
2023-03-10T10:35:25.873Z,67.87
2023-03-10T10:38:32.441Z,67.00
2023-03-10T10:41:38.640Z,67.77
2023-03-10T10:44:47.065Z,68.23
2023-03-10T10:47:53.475Z,67.48
2023-03-10T10:50:57.836Z,68.33
2023-03-10T10:54:09.429Z,67.68
2023-03-10T10:57:22.514Z,68.49
2023-03-10T11:00:28.813Z,68.17
2023-03-10T11:03:35.223Z,68.23
2023-03-10T11:06:41.450Z,68.10
2023-03-10T11:09:45.808Z,68.14
2023-03-10T11:13:10.499Z,68.80
2023-03-10T11:16:38.270Z,67.93
2023-03-10T11:20:03.530Z,68.20
2023-03-10T11:23:14.853Z,67.80
2023-03-10T11:26:33.084Z,68.27
2023-03-10T11:29:58.501Z,68.24
2023-03-10T11:33:06.624Z,67.88
2023-03-10T11:36:27.179Z,68.58
2023-03-10T11:39:31.473Z,68.89
2023-03-10T11:42:57.098Z,68.57
2023-03-10T11:46:34.985Z,67.79
2023-03-10T11:49:44.458Z,68.38
2023-03-10T11:52:50.772Z,68.71
2023-03-10T11:55:56.451Z,69.59
2023-03-10T11:59:12.675Z,69.49
2023-03-10T12:02:28.251Z,70.21
2023-03-10T12:05:47.166Z,70.16
2023-03-10T12:08:55.949Z,70.97
2023-03-10T12:12:02.358Z,70.84
2023-03-10T12:15:21.510Z,70.69
2023-03-10T12:18:26.981Z,70.06
2023-03-10T12:21:32.666Z,70.41
2023-03-10T12:24:54.676Z,71.43
2023-03-10T12:28:21.446Z,70.91
2023-03-10T12:31:41.255Z,70.38
2023-03-10T12:34:47.219Z,69.77
2023-03-10T12:38:11.968Z,70.50
2023-03-10T12:41:27.952Z,70.41
2023-03-10T12:44:50.719Z,70.41
2023-03-10T12:48:08.357Z,70.46
2023-03-10T12:51:18.495Z,69.91
2023-03-10T12:54:24.237Z,69.58
2023-03-10T12:57:40.857Z,69.90
2023-03-10T13:00:55.612Z,68.98
2023-03-10T13:04:07.988Z,69.73
2023-03-10T13:07:18.169Z,69.63
2023-03-10T13:10:26.010Z,69.42
2023-03-10T13:13:38.734Z,69.69
2023-03-10T13:16:54.231Z,69.91
2023-03-10T13:19:59.772Z,70.53
2023-03-10T13:23:04.518Z,71.11
2023-03-10T13:26:19.031Z,70.65
2023-03-10T13:29:24.515Z,70.71
2023-03-10T13:32:28.719Z,70.58
2023-03-10T13:35:36.788Z,69.81
2023-03-10T13:38:44.228Z,70.92
2023-03-10T13:41:50.772Z,71.17
2023-03-10T13:44:56.205Z,70.82
2023-03-10T13:48:03.969Z,71.30
2023-03-10T13:51:22.028Z,70.54
2023-03-10T13:54:32.428Z,71.26
2023-03-10T13:57:38.109Z,70.80
2023-03-10T14:00:48.030Z,71.12
2023-03-10T14:04:00.833Z,70.09
2023-03-10T14:07:10.921Z,70.69
2023-03-10T14:10:20.726Z,70.95
2023-03-10T14:13:45.951Z,71.19
2023-03-10T14:17:00.102Z,71.06
2023-03-10T14:20:05.994Z,70.85
2023-03-10T14:23:23.117Z,70.58
2023-03-10T14:26:27.507Z,70.13
2023-03-10T14:29:33.279Z,69.87
2023-03-10T14:32:36.861Z,69.93
2023-03-10T14:35:41.472Z,69.93
2023-03-10T14:38:49.264Z,68.82
2023-03-10T14:41:57.407Z,68.67
2023-03-10T14:45:07.748Z,68.88
2023-03-10T14:48:16.448Z,67.81
2023-03-10T14:51:34.357Z,67.99
2023-03-10T14:54:39.865Z,67.75
2023-03-10T14:57:50.397Z,68.35
2023-03-10T15:00:55.253Z,66.34
2023-03-10T15:04:02.796Z,67.41
2023-03-10T15:07:11.759Z,65.91
2023-03-10T15:10:18.570Z,66.38
2023-03-10T15:13:25.299Z,66.74
2023-03-10T15:16:29.862Z,66.58
2023-03-10T15:19:34.566Z,65.93
2023-03-10T15:22:38.948Z,65.59
2023-03-10T15:25:45.611Z,64.57
2023-03-10T15:28:49.974Z,65.80
2023-03-10T15:31:54.013Z,65.62
2023-03-10T15:34:58.690Z,65.29
2023-03-10T15:38:03.440Z,65.33
2023-03-10T15:41:08.094Z,64.81
2023-03-10T15:44:12.579Z,64.50
2023-03-10T15:47:17.243Z,64.94
2023-03-10T15:50:23.176Z,63.87
2023-03-10T15:53:27.682Z,63.89
2023-03-10T15:56:32.196Z,64.65
2023-03-10T15:59:37.590Z,63.83
2023-03-10T16:02:42.125Z,64.70
2023-03-10T16:05:50.273Z,64.06
2023-03-10T16:08:54.678Z,63.05
2023-03-10T16:11:59.449Z,63.23
2023-03-10T16:15:03.504Z,64.36
2023-03-10T16:18:07.204Z,63.43
2023-03-10T16:21:11.908Z,63.19
2023-03-10T16:24:15.847Z,64.31
2023-03-10T16:27:19.849Z,63.57
2023-03-10T16:30:28.846Z,63.70
2023-03-10T16:33:33.508Z,63.92
2023-03-10T16:36:38.049Z,64.70
2023-03-10T16:39:42.426Z,63.48
2023-03-10T16:42:47.213Z,63.85
2023-03-10T16:45:51.927Z,65.39
2023-03-10T16:48:57.249Z,64.86
2023-03-10T16:52:03.696Z,65.30
2023-03-10T16:55:10.218Z,63.87
2023-03-10T16:58:15.079Z,64.25
2023-03-10T17:01:20.527Z,64.19
2023-03-10T17:04:24.537Z,63.99
2023-03-10T17:07:28.478Z,63.18
2023-03-10T17:10:34.219Z,62.09
2023-03-10T17:13:39.492Z,62.78
2023-03-10T17:16:45.595Z,63.33
2023-03-10T17:19:51.876Z,63.23
2023-03-10T17:22:56.215Z,63.47
2023-03-10T17:26:02.012Z,64.41
2023-03-10T17:29:06.623Z,64.42
2023-03-10T17:32:10.791Z,66.04
2023-03-10T17:35:15.381Z,65.76
2023-03-10T17:38:19.347Z,65.81
2023-03-10T17:41:23.973Z,65.91
2023-03-10T17:44:27.910Z,67.28
2023-03-10T17:47:33.161Z,67.47
2023-03-10T17:50:36.996Z,67.88
2023-03-10T17:53:41.204Z,68.36
2023-03-10T17:56:45.477Z,68.03
2023-03-10T17:59:52.036Z,69.30
2023-03-10T18:02:56.285Z,69.21
2023-03-10T18:06:00.555Z,68.75
2023-03-10T18:09:07.204Z,69.34
2023-03-10T18:12:11.995Z,69.24
2023-03-10T18:15:16.779Z,69.48
2023-03-10T18:18:20.956Z,70.73
2023-03-10T18:21:26.272Z,70.94
2023-03-10T18:24:30.663Z,71.71
2023-03-10T18:27:35.076Z,72.39
2023-03-10T18:30:44.500Z,72.26
2023-03-10T18:33:49.473Z,71.87
2023-03-10T18:36:53.924Z,71.41
2023-03-10T18:39:59.117Z,71.50
2023-03-10T18:43:02.856Z,72.33
2023-03-10T18:46:07.556Z,71.72
2023-03-10T18:49:12.087Z,72.06
2023-03-10T18:52:19.468Z,72.13
2023-03-10T18:55:23.403Z,73.15
2023-03-10T18:58:27.419Z,72.13
2023-03-10T19:01:33.070Z,72.49
2023-03-10T19:04:38.228Z,72.58
2023-03-10T19:07:42.343Z,72.23
2023-03-10T19:10:46.387Z,71.95
2023-03-10T19:13:51.169Z,72.38
2023-03-10T19:16:55.323Z,72.48
2023-03-10T19:19:59.719Z,72.69
2023-03-10T19:23:03.650Z,72.43
2023-03-10T19:26:09.859Z,72.40
2023-03-10T19:29:14.076Z,71.76
2023-03-10T19:32:17.826Z,72.93
2023-03-10T19:35:22.160Z,72.36
2023-03-10T19:38:28.902Z,71.78
2023-03-10T19:41:32.829Z,71.76
2023-03-10T19:44:39.597Z,71.58
2023-03-10T19:47:44.189Z,71.30
2023-03-10T19:50:55.728Z,69.90
2023-03-10T19:54:02.610Z,70.72
2023-03-10T19:57:08.431Z,71.46
2023-03-10T20:00:16.949Z,70.97
2023-03-10T20:03:21.571Z,70.68
2023-03-10T20:06:26.587Z,70.06
2023-03-10T20:09:30.585Z,69.95
2023-03-10T20:12:34.892Z,69.35
2023-03-10T20:15:39.766Z,69.89
2023-03-10T20:18:43.730Z,70.48
2023-03-10T20:21:48.124Z,70.58
2023-03-10T20:24:52.077Z,70.45
2023-03-10T20:27:56.974Z,70.11
2023-03-10T20:31:01.094Z,69.83
2023-03-10T20:34:07.784Z,69.70
2023-03-10T20:37:11.970Z,69.83
2023-03-10T20:40:24.719Z,70.94
2023-03-10T20:43:28.912Z,70.99
2023-03-10T20:46:33.656Z,71.82
2023-03-10T20:49:37.655Z,70.84
2023-03-10T20:52:44.191Z,70.64
2023-03-10T20:55:48.202Z,70.59
2023-03-10T20:58:51.861Z,70.92
2023-03-10T21:01:55.691Z,70.62
2023-03-10T21:05:00.595Z,71.14
2023-03-10T21:08:05.068Z,70.65
2023-03-10T21:11:08.956Z,70.73
2023-03-10T21:14:12.960Z,70.81
2023-03-10T21:17:17.726Z,69.75
2023-03-10T21:20:23.438Z,71.06
2023-03-10T21:23:27.317Z,70.43
2023-03-10T21:26:31.814Z,70.11
2023-03-10T21:29:36.646Z,70.33
2023-03-10T21:32:40.766Z,70.82
2023-03-10T21:35:45.065Z,71.11
2023-03-10T21:38:53.364Z,71.35
2023-03-10T21:42:00.410Z,71.04
2023-03-10T21:45:06.300Z,70.52
2023-03-10T21:48:12.113Z,70.26
2023-03-10T21:51:18.268Z,70.60
2023-03-10T21:54:22.818Z,71.70
2023-03-10T21:57:26.863Z,71.21
2023-03-10T22:00:30.854Z,71.51
2023-03-10T22:03:37.025Z,70.76
2023-03-10T22:06:41.716Z,70.56
2023-03-10T22:09:45.885Z,70.38
2023-03-10T22:12:49.920Z,71.31
2023-03-10T22:15:54.013Z,71.30
2023-03-10T22:18:58.454Z,70.93
2023-03-10T22:22:05.218Z,71.22
2023-03-10T22:25:09.787Z,71.28
2023-03-10T22:28:14.664Z,69.86
2023-03-10T22:31:20.149Z,68.70
2023-03-10T22:34:24.123Z,69.44
2023-03-10T22:37:28.410Z,69.45
2023-03-10T22:40:32.960Z,69.29
2023-03-10T22:43:37.323Z,70.49
2023-03-10T22:46:45.159Z,69.33
2023-03-10T22:49:49.304Z,69.39
2023-03-10T22:52:53.212Z,69.57
2023-03-10T22:55:57.778Z,68.99
2023-03-10T22:59:04.567Z,69.81
2023-03-10T23:02:11.547Z,70.08
2023-03-10T23:05:16.628Z,70.28
2023-03-10T23:08:21.410Z,70.23
2023-03-10T23:11:25.726Z,70.34
2023-03-10T23:14:29.631Z,71.03
2023-03-10T23:17:33.722Z,71.10
2023-03-10T23:20:42.338Z,70.94
2023-03-10T23:23:48.578Z,70.83
2023-03-10T23:26:52.553Z,70.93
2023-03-10T23:29:56.428Z,71.61
2023-03-10T23:33:00.621Z,71.34
2023-03-10T23:36:04.501Z,71.10
2023-03-10T23:39:11.861Z,71.30
2023-03-10T23:42:15.911Z,71.55
2023-03-10T23:45:22.484Z,71.57
2023-03-10T23:48:26.657Z,72.15
2023-03-10T23:51:31.517Z,73.05
2023-03-10T23:54:36.077Z,73.56
2023-03-10T23:57:40.132Z,72.90
